Aeroporto :
LOGIN :

Iscrizione | Disclaimer

   EN    FR    IT 

 










Sommario :    VFR   VFR Marginale   IFR   IFR Intensivo   IFR Molto Intensivo
Visibilità : 
Base nubi : 
>= 8 km
>= 3000ft
5 / 8 km
1000 / 3000 ft
1500m / 5 km
500 / 1000 ft
800 / 1500m
200 / 500 ft
< 800m
< 200 ft
Simboli :   Temporali  Nebbia  Neve Forte  Precipitazioni Forti  Vento > 20 kt
SIGMETs :   Varie  Temporali  Ghiacco  Turbolenza  Onda orograficha  Ceneri Vulcaniche






- Altitudine del aeroporto : 13 ft
- Codice IATA : OST


EBOS - Oostend bruges Int.

ULTIMO METAR :
  • 090120Z 06004KT 4000 BR NSC 09/07 Q1023 NOSIG

METARs OBSOLETI :
  • 090050Z 03006KT 4000 BR NSC 09/08 Q1024 NOSIG
  • 090020Z 03003KT 4000 BR NSC 10/07 Q1024 NOSIG
  • 082350Z 04003KT 4000 BR NSC 09/07 Q1024 NOSIG
  • 082320Z 05003KT 6000 NSC 09/07 Q1024 BECMG 4000 BR
  • 082250Z 06004KT 6000 NSC 09/07 Q1024 BECMG 4000 BR
  • 082220Z 03003KT 010V070 6000 NSC 10/08 Q1024 NOSIG

TAF TAF EBOS
Valido dal 09 a 00 ore il 10 a 06 ore UTC


082300Z 0900/1006 04006KT 7000 NSC
TEMPO 0900/0907 3000 BR
PROB30
TEMPO 0904/0906 4000 BR



MetMap, La meteo Aeronautica in un colpo d'occhio ! - Copyright ORBIFLY Dicembre 2007 - Disclaimer

ORBIFLY MET'MAP TEAM :

Programmazione e sviluppo : Alexandra Zaïnal
Concezione : Baudouin d'Aumeries
Aiuto per la programmazione : Marc-Olivier Méhu
Supporto tecnico e logistico : Manuel Goepfert
Aiuto per la traduzione : Arnaldo La Scala

Contatto : metmap@orbifly.com




FONTI E CREDITI :

   NOAA